Time;durP1;ratioP1;P1;durP2;ratioP2;P2;SDS_P1;SDS_P2;PMS_P1;PMS_P2;Temp;Humidity;BMP_temperature;BMP_pressure;BME280_temperature;BME280_humidity;BME280_pressure;Samples;Min_cycle;Max_cycle;Signal;HPM_P1;HPM_P2
2021/04/10 00:02:17;;;;;;;9.43;2.72;;;13.00;53.70;;;;;;5007941;28;20084;-75
2021/04/10 00:04:43;;;;;;;8.40;2.75;;;13.00;53.70;;;;;;5014155;28;20130;-73
2021/04/10 00:07:10;;;;;;;5.82;2.22;;;13.10;54.20;;;;;;5012397;28;20096;-74
2021/04/10 00:09:36;;;;;;;5.93;2.22;;;13.10;53.70;;;;;;5013825;28;20137;-74
2021/04/10 00:12:03;;;;;;;5.15;2.55;;;13.00;53.80;;;;;;5010557;28;20074;-73
2021/04/10 00:14:29;;;;;;;5.40;2.38;;;13.00;54.00;;;;;;5013485;28;20133;-73
2021/04/10 00:16:55;;;;;;;7.05;2.10;;;13.00;54.00;;;;;;5010043;28;20386;-73
2021/04/10 00:19:22;;;;;;;7.38;2.20;;;13.00;54.00;;;;;;5013992;28;20099;-73
2021/04/10 00:21:48;;;;;;;7.55;2.15;;;13.00;54.00;;;;;;5013505;28;20543;-73
2021/04/10 00:24:14;;;;;;;8.02;2.67;;;13.00;54.00;;;;;;5014592;28;20042;-73
2021/04/10 00:26:41;;;;;;;4.97;2.35;;;13.00;54.10;;;;;;5013529;28;20104;-73
2021/04/10 00:29:07;;;;;;;4.22;2.03;;;12.90;54.20;;;;;;5012725;28;20145;-72
2021/04/10 00:31:34;;;;;;;6.20;2.17;;;12.90;54.40;;;;;;5011700;28;20476;-73
2021/04/10 00:34:01;;;;;;;5.38;2.33;;;12.80;54.90;;;;;;5007402;28;20077;-72
2021/04/10 00:36:28;;;;;;;6.95;2.53;;;12.70;55.20;;;;;;5012978;28;20466;-73
2021/04/10 00:38:54;;;;;;;7.63;2.65;;;12.70;55.30;;;;;;5014527;28;20629;-73
2021/04/10 00:41:21;;;;;;;6.07;2.25;;;12.60;55.40;;;;;;5012845;28;20050;-73
2021/04/10 00:43:48;;;;;;;6.35;2.70;;;12.70;55.40;;;;;;5009523;28;20132;-73
2021/04/10 00:46:14;;;;;;;8.35;2.53;;;12.70;55.40;;;;;;5009794;28;20099;-73
2021/04/10 00:48:40;;;;;;;8.35;2.30;;;12.60;55.40;;;;;;5014562;28;20070;-73
2021/04/10 00:51:07;;;;;;;5.95;2.55;;;12.60;55.50;;;;;;5016001;28;20527;-71
2021/04/10 00:53:35;;;;;;;6.25;2.25;;;12.60;55.50;;;;;;5012783;28;20050;-73
2021/04/10 00:56:06;;;;;;;6.43;1.75;;;12.70;55.90;;;;;;5010704;28;20070;-71
2021/04/10 00:58:33;;;;;;;3.70;2.20;;;12.70;55.40;;;;;;5011805;28;20424;-72
2021/04/10 01:01:01;;;;;;;9.98;2.30;;;12.80;55.30;;;;;;5011649;28;20136;-72
2021/04/10 01:03:27;;;;;;;5.75;2.35;;;12.70;55.30;;;;;;5013211;28;20529;-72
2021/04/10 01:05:54;;;;;;;3.88;2.35;;;12.80;55.00;;;;;;5013500;28;20104;-72
2021/04/10 01:08:20;;;;;;;8.38;2.00;;;12.80;54.80;;;;;;5010496;28;20147;-72
2021/04/10 01:10:47;;;;;;;4.95;2.25;;;12.90;54.50;;;;;;5013222;28;20042;-70
2021/04/10 01:13:35;;;;;;;5.50;2.13;;;12.90;54.10;;;;;;5012153;28;20526;-72
2021/04/10 01:16:04;;;;;;;7.63;2.17;;;13.00;53.90;;;;;;5012393;28;20450;-70
2021/04/10 01:18:43;;;;;;;5.40;2.30;;;13.00;53.70;;;;;;5014289;28;20165;-72
2021/04/10 01:21:38;;;;;;;3.60;1.90;;;12.90;53.70;;;;;;5007814;28;20144;-72
2021/04/10 01:24:32;;;;;;;4.85;2.20;;;12.90;53.80;;;;;;5024349;28;20038;-72
2021/04/10 01:27:23;;;;;;;4.07;1.80;;;13.00;53.80;;;;;;5027830;28;20077;-72
2021/04/10 01:30:04;;;;;;;6.80;2.00;;;13.00;53.70;;;;;;5007461;28;20080;-72
2021/04/10 01:32:35;;;;;;;5.40;1.75;;;13.00;53.60;;;;;;5012108;28;20073;-73
2021/04/10 01:35:07;;;;;;;7.45;2.00;;;13.00;53.40;;;;;;5013771;28;20046;-72
2021/04/10 01:37:39;;;;;;;8.00;1.83;;;13.10;53.20;;;;;;5013762;28;20056;-73
2021/04/10 01:40:07;;;;;;;7.35;2.03;;;13.10;53.00;;;;;;5010611;28;20137;-72
2021/04/10 01:42:35;;;;;;;6.00;2.25;;;13.10;52.90;;;;;;5011493;28;20042;-71
2021/04/10 01:45:03;;;;;;;5.90;1.98;;;13.10;52.90;;;;;;5013878;28;20058;-72
2021/04/10 01:47:32;;;;;;;3.33;1.70;;;13.20;52.90;;;;;;5010078;28;20129;-72
2021/04/10 01:50:02;;;;;;;3.70;1.77;;;13.20;52.90;;;;;;5007889;28;20050;-72
2021/04/10 01:52:29;;;;;;;4.57;1.70;;;13.20;52.80;;;;;;5012469;28;20468;-72
2021/04/10 01:54:57;;;;;;;6.10;1.75;;;13.20;52.70;;;;;;5012825;28;20050;-72
2021/04/10 01:57:23;;;;;;;3.90;2.10;;;13.10;52.70;;;;;;5014176;28;20057;-72
2021/04/10 01:59:50;;;;;;;6.57;1.65;;;13.20;52.70;;;;;;5011117;28;20088;-71
2021/04/10 02:02:17;;;;;;;6.70;1.77;;;13.20;52.70;;;;;;5012733;28;20077;-74
2021/04/10 02:04:46;;;;;;;6.68;2.00;;;13.20;52.60;;;;;;5007247;28;20042;-72
2021/04/10 02:07:14;;;;;;;4.60;1.70;;;13.20;52.50;;;;;;5012135;28;20135;-73
2021/04/10 02:09:45;;;;;;;5.93;1.70;;;13.20;52.40;;;;;;5011082;28;20397;-72
2021/04/10 02:12:12;;;;;;;9.77;2.00;;;13.20;52.30;;;;;;5022786;28;20134;-73
2021/04/10 02:14:40;;;;;;;4.82;1.70;;;13.30;52.30;;;;;;5009466;28;20045;-73
2021/04/10 02:17:08;;;;;;;5.72;1.80;;;13.30;52.20;;;;;;5011263;28;20447;-72
2021/04/10 02:19:34;;;;;;;2.80;1.52;;;13.30;52.10;;;;;;5004564;28;20054;-72
2021/04/10 02:22:03;;;;;;;4.57;1.65;;;13.30;52.00;;;;;;5010380;28;20056;-72
2021/04/10 02:24:30;;;;;;;4.35;1.73;;;13.30;51.90;;;;;;5014855;28;20088;-72
2021/04/10 02:26:56;;;;;;;5.60;1.70;;;13.30;52.00;;;;;;5010786;28;20077;-72
2021/04/10 02:29:23;;;;;;;5.90;1.92;;;13.40;51.90;;;;;;5010313;28;20053;-72
2021/04/10 02:31:55;;;;;;;5.05;2.00;;;13.40;51.80;;;;;;5011057;28;20129;-73
2021/04/10 02:34:25;;;;;;;2.50;1.20;;;13.40;51.70;;;;;;5008904;28;20128;-72
2021/04/10 02:36:54;;;;;;;7.10;2.13;;;13.40;51.70;;;;;;5011464;28;20084;-71
2021/04/10 02:39:23;;;;;;;3.28;1.30;;;13.40;51.70;;;;;;5012367;28;20119;-72
2021/04/10 02:41:53;;;;;;;4.60;1.70;;;13.40;51.80;;;;;;5011054;28;20058;-73
2021/04/10 02:44:27;;;;;;;4.47;1.67;;;13.40;51.80;;;;;;5010863;28;20058;-73
2021/04/10 02:47:00;;;;;;;4.95;1.60;;;13.40;51.80;;;;;;5004359;28;20092;-73
2021/04/10 02:49:29;;;;;;;4.55;1.45;;;13.40;51.90;;;;;;5008821;28;20053;-72
2021/04/10 02:51:58;;;;;;;2.92;1.30;;;13.40;51.90;;;;;;5005370;28;20081;-71
2021/04/10 02:54:27;;;;;;;4.20;1.38;;;13.40;52.00;;;;;;5010886;28;20127;-72
2021/04/10 02:57:01;;;;;;;4.47;1.40;;;13.50;52.20;;;;;;5008224;28;21962;-73
2021/04/10 02:59:28;;;;;;;4.03;1.65;;;13.40;52.20;;;;;;5011557;28;20081;-72
2021/04/10 03:01:57;;;;;;;7.93;1.35;;;13.40;52.30;;;;;;5001916;28;20081;-73
2021/04/10 03:04:24;;;;;;;2.35;1.33;;;13.40;52.40;;;;;;5010480;28;20045;-72
2021/04/10 03:06:50;;;;;;;7.72;1.58;;;13.40;52.40;;;;;;5010916;28;20037;-73
2021/04/10 03:09:17;;;;;;;5.15;1.85;;;13.40;52.40;;;;;;5010296;28;20046;-73
2021/04/10 03:11:45;;;;;;;3.67;1.50;;;13.40;52.50;;;;;;4997067;28;20097;-73
2021/04/10 03:14:11;;;;;;;6.13;1.90;;;13.40;52.60;;;;;;5004555;28;20477;-72
2021/04/10 03:16:38;;;;;;;3.05;1.15;;;13.40;52.60;;;;;;5022843;28;20077;-74
2021/04/10 03:19:07;;;;;;;7.13;1.40;;;13.40;52.80;;;;;;5003901;28;20100;-73
2021/04/10 03:21:34;;;;;;;4.13;1.38;;;13.40;52.80;;;;;;5010973;28;20509;-73
2021/04/10 03:24:00;;;;;;;4.07;1.55;;;13.40;53.50;;;;;;5010131;28;20137;-73
2021/04/10 03:26:27;;;;;;;6.20;1.48;;;13.40;53.10;;;;;;5015463;28;20046;-73
2021/04/10 03:28:54;;;;;;;5.90;1.40;;;13.30;53.30;;;;;;5014340;28;20080;-73
2021/04/10 03:31:22;;;;;;;3.53;1.33;;;13.30;53.50;;;;;;5012518;28;20137;-73
2021/04/10 03:33:48;;;;;;;9.68;1.40;;;13.30;53.70;;;;;;5018142;28;20089;-73
2021/04/10 03:36:15;;;;;;;7.75;1.60;;;13.30;53.80;;;;;;5014887;28;20066;-72
2021/04/10 03:38:42;;;;;;;1.75;1.20;;;13.30;54.00;;;;;;5030352;28;20073;-73
2021/04/10 03:41:09;;;;;;;5.13;1.52;;;13.30;54.20;;;;;;5013103;28;20378;-73
2021/04/10 03:43:35;;;;;;;3.67;1.35;;;13.20;54.20;;;;;;5014195;28;20080;-73
2021/04/10 03:46:02;;;;;;;4.45;1.45;;;13.30;54.60;;;;;;5017438;28;20096;-72
2021/04/10 03:48:29;;;;;;;3.92;1.50;;;13.20;54.60;;;;;;5014880;28;20736;-73
2021/04/10 03:50:57;;;;;;;8.90;1.52;;;13.30;54.90;;;;;;5009435;28;20046;-73
2021/04/10 03:53:23;;;;;;;1.92;1.50;;;13.20;55.20;;;;;;5028862;28;20042;-73
2021/04/10 03:55:49;;;;;;;4.53;1.70;;;13.20;55.40;;;;;;5013815;28;20077;-73
2021/04/10 03:58:16;;;;;;;3.60;1.85;;;13.20;55.60;;;;;;5014405;28;20097;-72
2021/04/10 04:00:42;;;;;;;4.18;2.05;;;13.30;56.00;;;;;;5008973;28;20496;-72
2021/04/10 04:03:08;;;;;;;6.00;2.42;;;13.30;56.30;;;;;;5014944;28;20159;-73
2021/04/10 04:05:35;;;;;;;7.30;1.80;;;13.30;56.40;;;;;;5012376;28;20046;-72
2021/04/10 04:08:01;;;;;;;6.10;1.85;;;13.30;56.70;;;;;;5014181;28;20137;-72
2021/04/10 04:10:27;;;;;;;6.15;2.03;;;13.30;57.00;;;;;;5013530;28;20515;-72
2021/04/10 04:12:54;;;;;;;5.72;1.80;;;13.30;57.00;;;;;;5008287;28;20054;-71
2021/04/10 04:15:20;;;;;;;8.25;1.67;;;13.30;57.40;;;;;;5013521;28;20057;-72
2021/04/10 04:17:46;;;;;;;4.10;1.55;;;13.30;57.60;;;;;;5013481;28;20469;-71
2021/04/10 04:20:13;;;;;;;3.92;1.65;;;13.40;58.00;;;;;;5014344;28;20053;-72
2021/04/10 04:22:39;;;;;;;4.15;1.65;;;13.40;58.10;;;;;;5029524;28;20112;-71
2021/04/10 04:25:07;;;;;;;6.63;2.28;;;13.30;57.90;;;;;;5013897;28;20050;-72
2021/04/10 04:27:37;;;;;;;12.20;1.75;;;13.40;58.00;;;;;;5013928;28;20046;-72
2021/04/10 04:30:08;;;;;;;5.60;1.60;;;13.40;58.00;;;;;;5012733;28;20123;-72
2021/04/10 04:32:35;;;;;;;5.03;1.70;;;13.30;57.80;;;;;;5014149;28;20386;-73
2021/04/10 04:35:01;;;;;;;6.30;1.80;;;13.30;57.70;;;;;;5013726;28;20046;-72
2021/04/10 04:37:27;;;;;;;10.35;1.60;;;13.20;57.50;;;;;;5012921;28;20552;-72
2021/04/10 04:39:54;;;;;;;5.57;1.58;;;13.20;57.50;;;;;;5006759;28;20104;-72
2021/04/10 04:42:21;;;;;;;6.85;1.45;;;13.20;57.40;;;;;;5008412;28;20057;-72
2021/04/10 04:44:48;;;;;;;4.90;1.50;;;13.20;57.40;;;;;;5013700;28;20077;-72
2021/04/10 04:47:15;;;;;;;4.53;1.60;;;13.20;57.50;;;;;;5012031;28;20084;-72
2021/04/10 04:49:41;;;;;;;4.35;1.70;;;13.20;57.50;;;;;;5013249;28;20049;-72
2021/04/10 04:52:08;;;;;;;5.15;1.48;;;13.20;57.60;;;;;;5014787;28;20397;-72
2021/04/10 04:54:35;;;;;;;6.53;1.52;;;13.10;57.50;;;;;;5011486;28;20153;-72
2021/04/10 04:57:01;;;;;;;4.65;1.70;;;13.10;57.50;;;;;;5016898;28;20077;-72
2021/04/10 04:59:27;;;;;;;5.05;1.80;;;13.10;57.60;;;;;;5013532;28;20145;-72
2021/04/10 05:01:53;;;;;;;9.73;1.90;;;13.10;58.10;;;;;;5010216;28;20485;-72
2021/04/10 05:04:20;;;;;;;5.20;1.90;;;13.10;57.70;;;;;;5014084;28;20103;-72
2021/04/10 05:06:46;;;;;;;6.60;1.70;;;13.10;57.70;;;;;;5012338;28;20070;-72
2021/04/10 05:09:12;;;;;;;5.47;2.00;;;13.00;57.60;;;;;;5007345;28;20104;-72
2021/04/10 05:11:38;;;;;;;6.00;1.85;;;13.00;57.50;;;;;;5011212;28;20131;-72
2021/04/10 05:14:05;;;;;;;5.88;1.80;;;13.00;57.60;;;;;;5010631;28;20100;-72
2021/04/10 05:16:31;;;;;;;4.10;1.73;;;13.00;57.70;;;;;;5005078;28;20133;-72
2021/04/10 05:18:58;;;;;;;4.40;1.60;;;13.00;57.70;;;;;;5012109;28;20504;-72
2021/04/10 05:21:24;;;;;;;5.13;1.60;;;12.90;57.70;;;;;;5011458;28;20054;-73
2021/04/10 05:23:51;;;;;;;4.43;1.80;;;12.90;57.70;;;;;;5014067;28;20104;-72
2021/04/10 05:26:17;;;;;;;3.70;1.85;;;12.90;57.90;;;;;;5012400;28;20092;-72
2021/04/10 05:28:44;;;;;;;4.82;1.80;;;12.90;57.90;;;;;;5012154;28;20073;-72
2021/04/10 05:31:10;;;;;;;2.28;1.48;;;12.90;58.00;;;;;;5005002;28;20050;-72
2021/04/10 05:33:37;;;;;;;3.55;1.67;;;12.90;58.10;;;;;;5008771;28;20077;-72
2021/04/10 05:36:03;;;;;;;5.13;1.60;;;12.90;58.10;;;;;;5011992;28;20521;-72
2021/04/10 05:38:31;;;;;;;4.30;1.38;;;12.90;58.00;;;;;;5012241;28;20112;-72
2021/04/10 05:40:57;;;;;;;4.75;1.45;;;12.90;57.90;;;;;;5010599;28;20161;-72
2021/04/10 05:43:23;;;;;;;2.70;1.40;;;12.80;57.90;;;;;;5007979;28;20077;-72
2021/04/10 05:45:50;;;;;;;4.63;1.40;;;12.80;57.90;;;;;;5011775;28;20081;-72
2021/04/10 05:48:16;;;;;;;3.95;1.27;;;12.70;57.90;;;;;;5011820;28;20081;-72
2021/04/10 05:50:42;;;;;;;8.52;1.75;;;12.70;58.00;;;;;;5013238;28;20050;-72
2021/04/10 05:53:09;;;;;;;3.45;1.17;;;12.70;57.90;;;;;;5012036;28;20042;-72
2021/04/10 05:55:35;;;;;;;4.63;1.60;;;12.60;57.90;;;;;;5012300;28;20112;-72
2021/04/10 05:58:02;;;;;;;4.18;1.55;;;12.70;58.00;;;;;;5018242;28;20080;-72
2021/04/10 06:00:28;;;;;;;2.80;1.27;;;12.60;58.00;;;;;;5012895;28;20053;-72
2021/04/10 06:02:55;;;;;;;3.50;1.30;;;12.70;58.10;;;;;;5012677;28;20050;-72
2021/04/10 06:05:22;;;;;;;5.70;2.17;;;12.70;58.20;;;;;;5012424;28;20077;-72
2021/04/10 06:07:49;;;;;;;3.20;1.35;;;12.70;58.20;;;;;;5021772;28;20107;-72
2021/04/10 06:10:18;;;;;;;5.32;1.33;;;12.60;58.20;;;;;;5009420;28;20116;-72
2021/04/10 06:12:45;;;;;;;2.03;1.23;;;12.60;58.40;;;;;;5009950;28;20064;-72
2021/04/10 06:15:13;;;;;;;3.05;1.30;;;12.60;58.40;;;;;;5010473;28;20362;-72
2021/04/10 06:17:40;;;;;;;2.88;1.17;;;12.60;58.70;;;;;;5012536;28;20077;-73
2021/04/10 06:20:08;;;;;;;2.95;1.40;;;12.60;58.70;;;;;;5010779;28;20473;-73
2021/04/10 06:22:37;;;;;;;4.47;1.63;;;12.60;58.70;;;;;;5010748;28;20083;-72
2021/04/10 06:25:05;;;;;;;7.65;1.30;;;12.70;58.70;;;;;;5009881;28;20144;-72
2021/04/10 06:27:33;;;;;;;5.00;1.33;;;12.60;58.80;;;;;;5010702;28;20076;-72
2021/04/10 06:30:00;;;;;;;5.10;1.45;;;12.60;59.20;;;;;;5011791;28;20126;-72
2021/04/10 06:32:26;;;;;;;4.28;1.27;;;12.60;59.30;;;;;;5004671;28;20080;-72
2021/04/10 06:34:53;;;;;;;4.13;1.48;;;12.60;59.40;;;;;;5006352;28;20438;-71
2021/04/10 06:37:19;;;;;;;4.85;1.50;;;12.60;59.40;;;;;;5010375;28;20058;-72
2021/04/10 06:39:45;;;;;;;4.78;1.20;;;12.60;59.30;;;;;;5011120;28;20678;-72
2021/04/10 06:42:13;;;;;;;3.25;1.38;;;12.50;59.40;;;;;;5010152;28;20085;-72
2021/04/10 06:44:39;;;;;;;6.68;1.52;;;12.50;59.40;;;;;;5012167;28;20057;-72
2021/04/10 06:47:07;;;;;;;7.30;1.30;;;12.60;59.40;;;;;;5011686;28;20038;-74
2021/04/10 06:49:34;;;;;;;3.55;1.30;;;12.60;59.40;;;;;;5009965;28;20058;-72
2021/04/10 06:52:00;;;;;;;1.70;1.13;;;12.50;59.20;;;;;;5011355;28;20452;-72
2021/04/10 06:54:32;;;;;;;3.22;1.02;;;12.50;59.40;;;;;;5010682;28;20049;-72
2021/04/10 06:57:12;;;;;;;6.32;1.30;;;12.50;59.30;;;;;;5007812;28;20046;-72
2021/04/10 07:00:06;;;;;;;2.30;1.40;;;12.60;59.30;;;;;;5010297;28;20112;-72
2021/04/10 07:02:35;;;;;;;4.38;1.30;;;12.60;59.10;;;;;;5008000;28;20307;-73
2021/04/10 07:05:02;;;;;;;3.80;1.50;;;12.60;59.30;;;;;;5009995;28;20403;-72
2021/04/10 07:07:29;;;;;;;4.28;1.40;;;12.50;59.20;;;;;;5009390;28;20041;-72
2021/04/10 07:09:57;;;;;;;5.65;1.55;;;12.40;59.20;;;;;;5011052;28;20053;-72
2021/04/10 07:12:23;;;;;;;5.18;1.33;;;12.50;59.20;;;;;;5008337;28;20100;-73
2021/04/10 07:14:49;;;;;;;3.45;1.10;;;12.50;58.90;;;;;;5027615;28;20444;-73
2021/04/10 07:17:16;;;;;;;3.65;1.10;;;12.40;59.70;;;;;;5012368;28;20041;-72
2021/04/10 07:19:43;;;;;;;4.82;1.23;;;12.30;59.00;;;;;;5010238;28;20053;-72
2021/04/10 07:22:16;;;;;;;7.10;1.15;;;12.30;59.20;;;;;;5013562;28;20131;-73
2021/04/10 07:24:49;;;;;;;1.48;0.85;;;12.40;59.00;;;;;;5008312;28;20080;-72
2021/04/10 07:27:17;;;;;;;4.25;1.13;;;12.30;59.10;;;;;;5006650;28;20045;-73
2021/04/10 07:29:48;;;;;;;3.60;1.25;;;12.30;59.10;;;;;;5012722;28;20038;-72
2021/04/10 07:32:28;;;;;;;4.68;1.48;;;12.30;59.00;;;;;;5006829;28;20046;-73
2021/04/10 07:34:59;;;;;;;3.05;1.23;;;12.30;59.10;;;;;;5014755;28;20064;-73
2021/04/10 07:37:31;;;;;;;2.92;1.25;;;12.30;59.10;;;;;;5016771;28;20080;-73
2021/04/10 07:39:59;;;;;;;3.53;1.35;;;12.30;59.10;;;;;;5011129;28;20092;-73
2021/04/10 07:42:27;;;;;;;1.60;0.90;;;12.20;59.30;;;;;;5015470;28;20050;-73
2021/04/10 07:44:54;;;;;;;4.55;1.30;;;12.00;59.80;;;;;;5010968;28;20136;-74
2021/04/10 07:47:36;;;;;;;3.70;1.25;;;12.00;60.40;;;;;;4994299;28;20464;-71
2021/04/10 07:50:26;;;;;;;4.07;1.35;;;12.10;60.40;;;;;;5000553;28;20048;-70
2021/04/10 07:52:53;;;;;;;3.35;1.50;;;12.10;61.20;;;;;;5001646;28;20177;-70
2021/04/10 07:55:40;;;;;;;5.75;1.50;;;12.10;61.20;;;;;;5004013;28;20666;-73
2021/04/10 07:58:31;;;;;;;3.10;1.42;;;12.20;61.60;;;;;;5002087;28;20851;-73
2021/04/10 08:01:00;;;;;;;4.45;1.27;;;12.20;60.20;;;;;;5013680;28;20097;-72
2021/04/10 08:03:31;;;;;;;1.92;1.10;;;12.20;60.40;;;;;;5000288;28;20046;-73
2021/04/10 08:06:07;;;;;;;2.67;1.27;;;12.20;59.90;;;;;;5002954;28;20061;-72
2021/04/10 08:08:52;;;;;;;1.92;0.90;;;12.10;61.40;;;;;;5002630;28;20054;-72
2021/04/10 08:11:33;;;;;;;1.83;1.20;;;12.10;61.80;;;;;;5004158;28;20160;-72
2021/04/10 08:14:07;;;;;;;1.60;1.17;;;12.10;59.20;;;;;;5005701;28;20073;-72
2021/04/10 08:16:42;;;;;;;4.22;1.30;;;12.20;59.40;;;;;;5006669;28;20046;-72
2021/04/10 08:19:09;;;;;;;3.80;1.30;;;12.40;60.20;;;;;;5006619;28;20054;-71
2021/04/10 08:21:37;;;;;;;3.40;1.08;;;12.30;59.80;;;;;;5005175;28;20131;-73
2021/04/10 08:24:27;;;;;;;3.58;1.40;;;12.30;59.80;;;;;;5022852;28;20057;-73
2021/04/10 08:26:57;;;;;;;3.33;1.10;;;12.20;61.70;;;;;;5003081;28;20416;-73
2021/04/10 08:29:24;;;;;;;4.57;1.23;;;12.20;59.60;;;;;;5005379;28;20078;-73
2021/04/10 08:31:52;;;;;;;3.55;1.30;;;12.20;60.20;;;;;;5005655;28;20135;-72
2021/04/10 08:34:19;;;;;;;2.08;1.13;;;12.30;59.90;;;;;;5004944;28;20127;-73
2021/04/10 08:37:00;;;;;;;1.60;0.90;;;12.40;59.80;;;;;;5021315;28;20455;-73
2021/04/10 08:39:30;;;;;;;3.28;1.15;;;12.40;58.80;;;;;;5007682;28;20124;-71
2021/04/10 08:41:58;;;;;;;0.70;0.70;;;12.50;59.10;;;;;;5006194;28;20089;-73
2021/04/10 08:44:28;;;;;;;4.47;1.63;;;12.50;59.10;;;;;;5004827;28;20107;-73
2021/04/10 08:46:55;;;;;;;2.30;1.15;;;12.60;58.90;;;;;;5005715;28;20128;-74
2021/04/10 08:49:23;;;;;;;2.80;1.30;;;12.70;58.80;;;;;;5015707;28;20052;-72
2021/04/10 08:52:03;;;;;;;1.67;1.02;;;12.70;58.70;;;;;;5006004;28;20081;-72
2021/04/10 08:54:33;;;;;;;;;;;12.80;59.20;;;;;;5006934;28;20085;-73
2021/04/10 08:57:06;;;;;;;2.85;1.40;;;12.60;58.90;;;;;;5004780;28;19936;-73
2021/04/10 08:59:41;;;;;;;1.08;0.90;;;12.60;59.20;;;;;;5006780;28;20096;-72
2021/04/10 09:02:19;;;;;;;3.60;2.00;;;12.60;59.20;;;;;;5005794;28;20123;-72
2021/04/10 09:05:07;;;;;;;8.27;1.10;;;12.60;58.90;;;;;;5005139;28;20054;-74
2021/04/10 09:07:48;;;;;;;3.03;1.10;;;12.40;59.10;;;;;;5006549;28;20073;-72
2021/04/10 09:10:25;;;;;;;3.58;1.20;;;12.20;59.60;;;;;;5020028;28;20134;-73
2021/04/10 09:13:11;;;;;;;5.85;1.13;;;12.10;59.90;;;;;;5000490;28;20123;-72
2021/04/10 09:15:38;;;;;;;5.40;1.27;;;12.10;60.50;;;;;;5004825;28;20512;-72
2021/04/10 09:18:06;;;;;;;2.80;0.90;;;12.20;60.60;;;;;;5005951;28;20058;-72
2021/04/10 09:20:45;;;;;;;4.60;1.17;;;12.20;60.80;;;;;;5004374;28;20136;-72
2021/04/10 09:23:30;;;;;;;3.42;1.15;;;12.10;61.20;;;;;;5020006;28;20108;-71
2021/04/10 09:26:17;;;;;;;1.50;0.90;;;12.20;61.90;;;;;;5004804;28;20153;-74
2021/04/10 09:29:07;;;;;;;1.75;0.93;;;12.00;62.70;;;;;;5000826;28;20077;-72
2021/04/10 09:31:40;;;;;;;2.60;1.30;;;12.10;63.20;;;;;;4994876;28;20137;-73
2021/04/10 09:34:45;;;;;;;5.38;1.20;;;12.00;63.60;;;;;;5005534;28;20050;-74
2021/04/10 09:37:21;;;;;;;3.35;1.33;;;12.10;63.80;;;;;;5004592;28;20144;-72
2021/04/10 09:39:56;;;;;;;1.73;0.88;;;12.10;63.90;;;;;;5003931;28;20089;-73
2021/04/10 09:42:34;;;;;;;5.05;1.38;;;12.10;63.20;;;;;;5004498;28;20054;-74
2021/04/10 09:45:13;;;;;;;4.20;1.50;;;12.00;63.80;;;;;;5004512;28;20485;-72
2021/04/10 09:47:54;;;;;;;1.98;1.33;;;12.00;63.90;;;;;;5005449;28;20056;-72
2021/04/10 09:50:27;;;;;;;5.65;1.05;;;12.10;63.50;;;;;;5002163;28;20096;-73
2021/04/10 09:52:54;;;;;;;3.92;1.02;;;12.00;63.60;;;;;;5019994;28;20050;-72
2021/04/10 09:55:22;;;;;;;7.07;1.35;;;12.10;64.00;;;;;;5005278;28;20046;-72
2021/04/10 09:57:59;;;;;;;8.50;1.40;;;12.30;63.80;;;;;;5004021;28;20080;-71
2021/04/10 10:00:27;;;;;;;3.42;1.30;;;12.50;63.10;;;;;;5003868;28;20145;-73
2021/04/10 10:02:54;;;;;;;3.83;1.45;;;12.30;63.10;;;;;;5005651;28;20159;-72
2021/04/10 10:05:22;;;;;;;2.08;1.10;;;12.60;62.80;;;;;;5005051;28;20531;-74
2021/04/10 10:07:50;;;;;;;3.30;1.40;;;12.50;62.50;;;;;;5004351;28;20054;-77
2021/04/10 10:10:17;;;;;;;3.35;1.25;;;12.60;62.30;;;;;;5004939;28;20573;-71
2021/04/10 10:12:43;;;;;;;4.63;1.10;;;12.70;62.00;;;;;;5003390;28;20100;-73
2021/04/10 10:15:30;;;;;;;4.05;1.38;;;12.70;62.00;;;;;;5004778;28;20053;-72
2021/04/10 10:17:57;;;;;;;2.92;1.38;;;12.40;62.80;;;;;;5004353;28;20872;-72
2021/04/10 10:20:24;;;;;;;7.45;1.65;;;12.50;62.90;;;;;;5004686;28;20053;-73
2021/04/10 10:22:50;;;;;;;7.72;1.55;;;12.50;63.00;;;;;;5002167;28;20481;-70
2021/04/10 10:25:17;;;;;;;4.63;1.40;;;12.50;63.10;;;;;;5003775;28;20096;-72
2021/04/10 10:27:46;;;;;;;3.50;1.50;;;12.50;62.70;;;;;;5002483;28;20133;-73
2021/04/10 10:30:17;;;;;;;2.70;1.20;;;12.40;62.90;;;;;;5000073;28;20461;-72
2021/04/10 10:32:48;;;;;;;9.23;1.80;;;12.50;62.80;;;;;;5003359;28;20145;-72
2021/04/10 10:35:19;;;;;;;7.20;1.40;;;12.70;62.60;;;;;;5004137;28;20046;-72
2021/04/10 10:37:49;;;;;;;3.88;1.40;;;12.70;61.90;;;;;;5004068;28;20089;-74
2021/04/10 10:40:26;;;;;;;8.00;1.65;;;12.80;61.40;;;;;;5003409;28;20154;-74
2021/04/10 10:43:08;;;;;;;2.35;1.20;;;12.80;61.10;;;;;;5004351;28;20120;-73
2021/04/10 10:45:47;;;;;;;10.77;1.63;;;12.80;60.40;;;;;;5003366;28;20049;-73
2021/04/10 10:48:43;;;;;;;8.35;1.63;;;12.80;60.90;;;;;;5005364;28;20070;-73
2021/04/10 10:51:16;;;;;;;4.57;1.55;;;12.80;60.30;;;;;;5003693;28;20053;-73
2021/04/10 10:53:49;;;;;;;4.82;1.58;;;12.80;60.90;;;;;;5001061;28;20571;-73
2021/04/10 10:56:21;;;;;;;3.25;1.27;;;13.00;59.90;;;;;;5004895;28;20053;-72
2021/04/10 10:58:50;;;;;;;4.25;1.42;;;13.00;60.10;;;;;;5002462;28;20058;-73
2021/04/10 11:01:18;;;;;;;3.28;1.35;;;13.20;59.50;;;;;;5000929;28;20120;-73
2021/04/10 11:03:51;;;;;;;6.18;1.45;;;12.90;59.50;;;;;;5002592;28;20053;-75
2021/04/10 11:06:27;;;;;;;4.18;1.58;;;13.10;59.50;;;;;;5001801;28;20690;-73
2021/04/10 11:08:59;;;;;;;2.03;1.30;;;13.10;59.40;;;;;;5018471;28;20049;-75
2021/04/10 11:11:31;;;;;;;5.05;1.35;;;13.00;59.30;;;;;;5004228;28;20584;-73
2021/04/10 11:13:58;;;;;;;5.22;1.30;;;13.10;58.90;;;;;;5002863;28;20057;-74
2021/04/10 11:16:25;;;;;;;4.45;1.50;;;12.90;59.30;;;;;;5004215;28;20054;-76
2021/04/10 11:18:56;;;;;;;4.78;1.60;;;13.10;59.10;;;;;;5003169;28;20050;-75
2021/04/10 11:21:29;;;;;;;3.83;1.40;;;13.10;59.00;;;;;;5003457;28;20081;-75
2021/04/10 11:23:56;;;;;;;2.65;1.60;;;13.20;59.00;;;;;;4998920;28;21283;-76
2021/04/10 11:26:51;;;;;;;2.87;1.60;;;13.00;58.80;;;;;;5003642;28;20060;-75
2021/04/10 11:29:28;;;;;;;4.15;1.60;;;13.00;58.70;;;;;;5015108;28;20081;-76
2021/04/10 11:32:18;;;;;;;7.55;1.73;;;12.80;59.20;;;;;;5013588;28;20046;-74
2021/04/10 11:34:52;;;;;;;6.15;2.72;;;12.80;59.00;;;;;;5016609;28;20058;-72
2021/04/10 11:37:31;;;;;;;3.67;1.45;;;13.00;58.90;;;;;;5014812;28;20060;-75
2021/04/10 11:40:07;;;;;;;3.80;1.50;;;13.10;58.30;;;;;;5012820;28;20053;-73
2021/04/10 11:42:46;;;;;;;7.30;1.58;;;12.90;58.40;;;;;;4996578;28;20047;-73
2021/04/10 11:45:35;;;;;;;6.30;1.45;;;13.00;58.40;;;;;;5015620;28;20413;-74
2021/04/10 11:48:18;;;;;;;3.88;1.42;;;13.00;58.40;;;;;;5002736;28;20050;-73
2021/04/10 11:50:49;;;;;;;2.55;1.30;;;13.00;58.50;;;;;;5003386;28;20151;-73
2021/04/10 11:53:20;;;;;;;2.15;1.60;;;13.20;58.40;;;;;;5009753;28;20081;-73
2021/04/10 11:55:47;;;;;;;5.20;1.58;;;13.00;58.40;;;;;;5006784;28;20143;-72
2021/04/10 11:58:14;;;;;;;4.38;1.60;;;13.20;58.30;;;;;;5019063;28;20413;-74
2021/04/10 12:00:40;;;;;;;6.85;1.98;;;13.50;57.60;;;;;;5026353;28;20477;-73
2021/04/10 12:03:11;;;;;;;3.38;1.40;;;13.70;57.10;;;;;;5013753;28;20041;-72
2021/04/10 12:05:42;;;;;;;5.78;1.75;;;13.80;56.60;;;;;;5028193;28;20086;-72
2021/04/10 12:08:27;;;;;;;3.30;1.60;;;13.60;56.60;;;;;;4994387;28;20151;-72
2021/04/10 12:10:59;;;;;;;3.67;1.60;;;13.70;56.30;;;;;;5006421;28;20536;-72
2021/04/10 12:13:27;;;;;;;3.05;1.50;;;13.60;56.70;;;;;;5012843;28;20046;-73
2021/04/10 12:15:56;;;;;;;6.45;1.70;;;13.60;56.80;;;;;;5005334;28;20117;-72
2021/04/10 12:18:25;;;;;;;5.97;1.80;;;13.70;56.40;;;;;;5006953;28;20081;-72
2021/04/10 12:20:52;;;;;;;3.78;1.83;;;13.60;57.00;;;;;;5009678;28;20139;-73
2021/04/10 12:23:21;;;;;;;2.75;1.65;;;13.60;57.00;;;;;;5012324;28;20089;-72
2021/04/10 12:25:47;;;;;;;2.78;1.55;;;13.50;57.80;;;;;;5017568;28;20085;-72
2021/04/10 12:28:15;;;;;;;3.22;1.92;;;13.60;56.90;;;;;;5011490;28;20428;-73
2021/04/10 12:30:42;;;;;;;3.20;1.75;;;13.60;57.10;;;;;;5011422;28;20103;-73
2021/04/10 12:33:08;;;;;;;2.60;1.60;;;13.60;57.20;;;;;;5013110;28;20469;-73
2021/04/10 12:35:35;;;;;;;2.42;1.70;;;13.60;56.90;;;;;;5012015;28;20057;-74
2021/04/10 12:38:01;;;;;;;3.75;2.03;;;13.70;57.10;;;;;;5013132;28;20041;-73
2021/04/10 12:40:28;;;;;;;7.70;1.65;;;13.60;56.80;;;;;;5010775;28;20057;-73
2021/04/10 12:42:54;;;;;;;4.82;1.70;;;13.70;56.90;;;;;;5012881;28;20115;-72
2021/04/10 12:45:21;;;;;;;5.30;1.70;;;13.80;56.90;;;;;;5019019;28;20464;-72
2021/04/10 12:47:48;;;;;;;6.13;1.70;;;13.90;56.70;;;;;;5011510;28;20092;-73
2021/04/10 12:50:19;;;;;;;3.40;1.83;;;14.00;56.50;;;;;;5027493;28;20458;-73
2021/04/10 12:52:46;;;;;;;4.47;1.70;;;14.00;56.50;;;;;;5013857;28;20077;-73
2021/04/10 12:55:13;;;;;;;4.07;1.60;;;14.20;56.10;;;;;;5010322;28;20122;-73
2021/04/10 12:57:40;;;;;;;3.30;1.67;;;14.10;56.10;;;;;;5013031;28;20054;-73
2021/04/10 13:00:08;;;;;;;2.33;1.50;;;14.40;55.90;;;;;;5007727;28;20089;-73
2021/04/10 13:02:35;;;;;;;3.20;1.40;;;14.90;54.80;;;;;;5011441;28;20077;-73
2021/04/10 13:05:03;;;;;;;2.58;1.50;;;14.90;54.40;;;;;;5008513;28;20409;-74